Time;durP1;ratioP1;P1;durP2;ratioP2;P2;SDS_P1;SDS_P2;PMS_P1;PMS_P2;Temp;Humidity;BMP_temperature;BMP_pressure;BME280_temperature;BME280_humidity;BME280_pressure;Samples;Min_cycle;Max_cycle;Signal;HPM_P1;HPM_P2
2022/07/29 00:01:16;;;;;;;3.78;1.55;;;;;;;21.52;42.56;100284.41;4993883;28;20050;-64
2022/07/29 00:03:43;;;;;;;5.53;1.50;;;;;;;21.52;42.61;100275.91;4989488;28;20053;-65
2022/07/29 00:06:12;;;;;;;7.95;2.03;;;;;;;21.51;42.96;100282.81;4994232;28;20057;-65
2022/07/29 00:08:39;;;;;;;3.75;1.40;;;;;;;21.53;42.82;100277.56;4993804;28;20050;-64
2022/07/29 00:11:06;;;;;;;3.65;1.55;;;;;;;21.52;42.61;100273.06;4993829;28;20050;-64
2022/07/29 00:13:34;;;;;;;3.90;1.70;;;;;;;21.48;42.67;100273.03;4990006;28;20491;-64
2022/07/29 00:16:01;;;;;;;3.88;1.70;;;;;;;21.47;42.82;100265.75;4993969;28;20054;-64
2022/07/29 00:18:30;;;;;;;4.63;1.40;;;;;;;21.43;42.84;100265.72;4993794;28;20058;-65
2022/07/29 00:20:57;;;;;;;3.38;1.35;;;;;;;21.41;42.73;100265.28;4993666;28;20050;-64
2022/07/29 00:23:26;;;;;;;3.97;1.52;;;;;;;21.37;42.85;100264.44;4991435;28;20495;-64
2022/07/29 00:25:53;;;;;;;4.53;1.42;;;;;;;21.34;43.11;100256.75;4986973;28;20491;-64
2022/07/29 00:28:20;;;;;;;2.85;1.65;;;;;;;21.34;43.38;100259.56;4993250;28;20134;-64
2022/07/29 00:30:51;;;;;;;2.90;1.35;;;;;;;21.29;43.60;100257.91;4993800;28;20047;-64
2022/07/29 00:33:18;;;;;;;4.07;1.52;;;;;;;21.27;43.83;100251.00;4993645;28;20058;-65
2022/07/29 00:35:45;;;;;;;3.15;1.73;;;;;;;21.27;43.57;100239.66;4990768;28;20054;-64
2022/07/29 00:38:13;;;;;;;3.60;1.50;;;;;;;21.21;43.63;100244.91;4993554;28;20059;-64
2022/07/29 00:40:43;;;;;;;4.65;1.50;;;;;;;21.21;43.65;100238.44;4993510;28;20475;-64
2022/07/29 00:43:11;;;;;;;4.25;1.27;;;;;;;21.15;43.63;100237.16;4993216;28;20046;-65
2022/07/29 00:45:38;;;;;;;5.93;1.80;;;;;;;21.12;43.77;100235.91;4991000;28;20054;-64
2022/07/29 00:48:09;;;;;;;4.88;1.60;;;;;;;21.06;43.89;100232.66;4993243;28;20050;-64
2022/07/29 00:50:37;;;;;;;3.50;1.55;;;;;;;21.04;43.92;100231.38;4992987;28;20356;-65
2022/07/29 00:53:06;;;;;;;4.68;1.73;;;;;;;20.98;43.97;100228.13;4986360;28;20443;-66
2022/07/29 00:55:33;;;;;;;2.45;1.40;;;;;;;20.94;43.96;100230.13;4990376;28;20054;-66
2022/07/29 00:58:02;;;;;;;3.58;1.50;;;;;;;20.94;44.10;100224.44;4993174;28;20054;-66
2022/07/29 01:00:30;;;;;;;3.72;1.40;;;;;;;20.91;44.25;100227.25;4992935;28;20415;-65
2022/07/29 01:02:58;;;;;;;3.88;1.52;;;;;;;20.89;44.48;100221.97;4990211;28;20057;-66
2022/07/29 01:05:28;;;;;;;3.65;1.50;;;;;;;20.83;44.54;100217.88;4993225;28;20054;-65
2022/07/29 01:07:59;;;;;;;4.05;1.67;;;;;;;20.79;44.78;100219.84;4992685;28;20078;-65
2022/07/29 01:10:28;;;;;;;3.03;1.45;;;;;;;20.74;45.00;100211.72;4993000;28;20051;-65
2022/07/29 01:13:00;;;;;;;3.72;1.20;;;;;;;20.72;45.06;100217.78;4990099;28;20407;-65
2022/07/29 01:15:29;;;;;;;3.80;1.45;;;;;;;20.71;45.10;100207.66;4992103;28;20081;-65
2022/07/29 01:18:02;;;;;;;2.70;1.48;;;;;;;20.67;45.23;100201.16;4992591;28;20081;-65
2022/07/29 01:20:45;;;;;;;5.57;1.98;;;;;;;20.65;45.17;100201.53;4993047;28;20066;-65
2022/07/29 01:23:41;;;;;;;7.65;2.13;;;;;;;20.60;45.48;100201.91;4990157;28;20422;-65
2022/07/29 01:26:34;;;;;;;2.60;1.27;;;;;;;20.54;45.75;100197.78;4973436;28;20419;-64
2022/07/29 01:29:07;;;;;;;4.47;1.50;;;;;;;20.49;46.21;100200.94;4973273;28;20054;-65
2022/07/29 01:31:42;;;;;;;4.28;1.90;;;;;;;20.46;45.53;100202.53;4973536;28;20062;-67
2022/07/29 01:34:16;;;;;;;5.20;1.55;;;;;;;20.43;46.11;100194.00;4978261;28;20065;-65
2022/07/29 01:36:48;;;;;;;5.47;1.67;;;;;;;20.39;46.51;100201.63;4991255;28;20054;-64
2022/07/29 01:39:28;;;;;;;5.05;1.45;;;;;;;20.37;47.38;100192.72;4992347;28;20057;-65
2022/07/29 01:42:02;;;;;;;2.97;1.60;;;;;;;20.33;48.05;100187.06;4992442;28;20050;-66
2022/07/29 01:44:38;;;;;;;4.15;1.77;;;;;;;20.25;48.39;100180.50;4989701;28;20065;-66
2022/07/29 01:47:14;;;;;;;3.53;1.40;;;;;;;20.21;48.57;100188.13;4992551;28;20054;-66
2022/07/29 01:49:47;;;;;;;3.50;1.50;;;;;;;20.14;48.56;100190.06;4992379;28;20058;-66
2022/07/29 01:52:20;;;;;;;3.42;1.45;;;;;;;20.11;48.55;100186.00;4988792;28;20614;-65
2022/07/29 01:54:56;;;;;;;4.68;1.85;;;;;;;20.06;49.00;100189.19;4992685;28;20061;-65
2022/07/29 01:57:32;;;;;;;4.43;1.80;;;;;;;20.00;50.14;100191.53;4991077;28;20070;-65
2022/07/29 02:00:03;;;;;;;11.13;2.08;;;;;;;19.92;50.83;100184.16;4992530;28;20046;-67
2022/07/29 02:02:32;;;;;;;4.18;1.80;;;;;;;19.82;50.91;100180.00;4989727;28;20058;-67
2022/07/29 02:05:04;;;;;;;3.58;1.70;;;;;;;19.78;51.23;100184.81;4992133;28;20526;-65
2022/07/29 02:07:33;;;;;;;3.97;1.40;;;;;;;19.76;51.48;100170.25;4992081;28;20138;-65
2022/07/29 02:10:03;;;;;;;3.10;1.40;;;;;;;19.71;51.75;100179.03;4992446;28;20406;-65
2022/07/29 02:12:33;;;;;;;6.15;1.90;;;;;;;19.62;51.71;100181.31;4988500;28;20058;-65
2022/07/29 02:15:05;;;;;;;3.78;1.63;;;;;;;19.59;51.91;100176.44;4992279;28;20058;-65
2022/07/29 02:17:38;;;;;;;5.82;1.80;;;;;;;19.58;52.09;100177.63;4992455;28;20411;-65
2022/07/29 02:20:11;;;;;;;4.07;1.65;;;;;;;19.54;51.93;100168.31;4992683;28;20065;-65
2022/07/29 02:22:41;;;;;;;4.43;1.90;;;;;;;19.44;52.33;100169.78;4988353;28;20414;-62
2022/07/29 02:25:10;;;;;;;4.95;2.00;;;;;;;19.48;52.56;100159.34;4973150;28;20055;-62
2022/07/29 02:27:40;;;;;;;4.63;1.50;;;;;;;19.46;52.32;100154.09;4972568;28;20055;-62
2022/07/29 02:30:12;;;;;;;4.13;1.80;;;;;;;19.44;52.21;100152.81;4972610;28;20055;-62
2022/07/29 02:32:42;;;;;;;5.03;1.60;;;;;;;19.44;52.19;100164.97;4976568;28;20049;-62
2022/07/29 02:35:15;;;;;;;4.10;1.73;;;;;;;19.42;52.22;100158.88;4992132;28;20054;-62
2022/07/29 02:38:49;;;;;;;4.78;1.80;;;;;;;19.38;53.04;100174.13;4992090;28;20059;-62
2022/07/29 02:40:34;;;;;;;3.65;2.20;;;;;;;19.32;52.80;100161.53;4991879;28;20066;-62
2022/07/29 02:43:03;;;;;;;4.90;1.73;;;;;;;19.24;53.12;100155.78;4988404;28;20077;-62
2022/07/29 02:45:35;;;;;;;4.90;1.60;;;;;;;19.15;53.41;100160.06;4991701;28;20378;-62
2022/07/29 02:48:07;;;;;;;4.40;1.80;;;;;;;19.16;53.38;100153.25;4991933;28;20062;-62
2022/07/29 02:50:38;;;;;;;2.40;1.42;;;;;;;19.19;53.23;100161.78;4995732;28;20486;-61
2022/07/29 02:53:12;;;;;;;6.78;1.90;;;;;;;19.19;52.89;100152.47;4990987;28;20050;-62
2022/07/29 02:55:46;;;;;;;5.55;2.13;;;;;;;19.21;52.67;100152.91;4995246;28;20050;-62
2022/07/29 02:58:26;;;;;;;3.10;1.58;;;;;;;19.19;52.89;100152.47;4995035;28;20050;-62
2022/07/29 03:00:54;;;;;;;;;;;;;;;19.15;53.13;100145.94;4996232;28;20069;-62
2022/07/29 03:03:22;;;;;;;7.65;1.80;;;;;;;19.11;53.28;100157.22;4992855;28;19929;-62
2022/07/29 03:05:50;;;;;;;3.88;1.77;;;;;;;19.10;53.41;100158.41;4995049;28;20104;-62
2022/07/29 03:08:18;;;;;;;5.75;1.92;;;;;;;19.08;53.61;100154.34;4994826;28;20502;-62
2022/07/29 03:10:47;;;;;;;3.58;1.70;;;;;;;19.06;53.54;100166.81;4995065;28;20471;-61
2022/07/29 03:13:15;;;;;;;6.25;1.90;;;;;;;19.09;53.86;100161.59;4986070;28;20463;-62
2022/07/29 03:15:45;;;;;;;4.82;2.13;;;;;;;19.09;54.06;100164.41;4975815;28;20090;-62
2022/07/29 03:18:15;;;;;;;2.83;1.67;;;;;;;19.12;54.26;100155.19;4975722;28;20507;-62
2022/07/29 03:20:43;;;;;;;3.25;1.73;;;;;;;19.05;54.38;100159.53;4975864;28;20058;-62
2022/07/29 03:23:10;;;;;;;3.47;2.00;;;;;;;19.06;54.83;100147.03;4979114;28;20058;-62
2022/07/29 03:25:38;;;;;;;3.92;1.60;;;;;;;19.10;54.23;100149.13;4992059;28;20160;-62
2022/07/29 03:28:05;;;;;;;3.05;1.98;;;;;;;19.12;54.12;100150.34;4994590;28;20050;-62
2022/07/29 03:30:33;;;;;;;2.67;1.70;;;;;;;19.11;54.38;100139.44;4994519;28;20077;-62
2022/07/29 03:33:00;;;;;;;9.18;2.20;;;;;;;19.16;54.10;100136.31;4991057;28;20066;-61
2022/07/29 03:35:31;;;;;;;7.28;2.35;;;;;;;19.18;53.97;100140.38;4994206;28;20433;-62
2022/07/29 03:37:58;;;;;;;6.70;2.20;;;;;;;19.21;54.29;100138.78;4994285;28;20404;-62
2022/07/29 03:40:31;;;;;;;6.03;2.40;;;;;;;19.19;54.22;100141.19;4994728;28;20054;-62
2022/07/29 03:43:01;;;;;;;4.65;2.20;;;;;;;19.19;54.35;100138.34;4993537;28;20050;-63
2022/07/29 03:45:29;;;;;;;;;;;;;;;19.18;54.29;100133.91;4992592;28;20050;-61
2022/07/29 03:48:02;;;;;;;5.07;1.80;;;;;;;19.17;54.32;100133.09;4994750;28;19921;-62
2022/07/29 03:50:31;;;;;;;5.80;2.20;;;;;;;19.19;54.85;100135.53;4994400;28;20403;-61
2022/07/29 03:52:59;;;;;;;5.07;2.20;;;;;;;19.21;54.73;100127.50;4988458;28;20050;-62
2022/07/29 03:55:29;;;;;;;4.30;1.73;;;;;;;19.21;54.89;100121.84;4994257;28;20487;-61
2022/07/29 03:57:57;;;;;;;3.63;2.08;;;;;;;19.21;54.57;100124.66;4994189;28;20054;-62
2022/07/29 04:00:26;;;;;;;5.37;1.70;;;;;;;19.17;54.13;100132.28;4994151;28;20069;-62
2022/07/29 04:02:53;;;;;;;4.90;1.97;;;;;;;19.16;53.93;100130.66;4989506;28;20054;-62
2022/07/29 04:05:21;;;;;;;3.45;1.90;;;;;;;19.15;54.28;100129.84;4993885;28;20481;-61
2022/07/29 04:07:50;;;;;;;4.60;1.80;;;;;;;19.17;54.02;100126.63;4994111;28;20066;-61
2022/07/29 04:10:18;;;;;;;7.65;2.45;;;;;;;19.19;54.06;100127.91;4993858;28;20050;-61
2022/07/29 04:12:46;;;;;;;2.67;2.10;;;;;;;19.22;53.95;100131.97;4991663;28;20050;-61
2022/07/29 04:15:13;;;;;;;5.85;2.40;;;;;;;19.22;54.59;100135.59;4994029;28;20481;-61
2022/07/29 04:17:40;;;;;;;3.28;2.00;;;;;;;19.24;55.02;100136.03;4992627;28;20062;-62
2022/07/29 04:20:09;;;;;;;4.22;1.70;;;;;;;19.25;55.08;100131.97;4993663;28;20057;-61
2022/07/29 04:22:36;;;;;;;4.25;2.28;;;;;;;19.26;55.00;100132.81;4990631;28;20043;-61
2022/07/29 04:25:05;;;;;;;3.83;2.00;;;;;;;19.12;55.61;100138.25;4993885;28;20148;-61
2022/07/29 04:27:32;;;;;;;5.68;2.13;;;;;;;19.12;55.90;100133.41;4993444;28;20061;-61
2022/07/29 04:30:00;;;;;;;3.97;2.00;;;;;;;19.19;56.12;100142.00;4993274;28;20164;-61
2022/07/29 04:32:27;;;;;;;8.80;2.45;;;;;;;19.19;56.25;100144.00;4991410;28;20054;-61
2022/07/29 04:34:54;;;;;;;4.45;2.00;;;;;;;19.21;56.19;100147.25;4985369;28;20053;-61
2022/07/29 04:37:21;;;;;;;5.03;2.17;;;;;;;19.12;56.15;100158.84;4993281;28;20054;-62
2022/07/29 04:39:49;;;;;;;3.13;1.70;;;;;;;19.16;56.46;100173.00;4993451;28;20065;-61
2022/07/29 04:42:17;;;;;;;4.85;2.22;;;;;;;19.21;56.68;100175.50;4993402;28;20054;-62
2022/07/29 04:44:45;;;;;;;8.63;2.13;;;;;;;19.21;55.72;100184.81;4991050;28;20054;-62
2022/07/29 04:47:12;;;;;;;3.88;1.80;;;;;;;19.23;54.87;100192.88;4988973;28;20480;-61
2022/07/29 04:49:39;;;;;;;3.33;1.85;;;;;;;19.25;54.93;100191.28;4993298;28;20054;-61
2022/07/29 04:52:07;;;;;;;6.30;2.17;;;;;;;19.33;54.72;100189.41;4992976;28;20046;-61
2022/07/29 04:54:34;;;;;;;7.53;2.20;;;;;;;19.38;53.90;100200.38;4991086;28;20056;-61
2022/07/29 04:57:01;;;;;;;4.57;1.85;;;;;;;19.41;53.78;100204.44;4992633;28;20431;-62
2022/07/29 04:59:30;;;;;;;8.88;2.38;;;;;;;19.47;53.99;100212.19;4993156;28;20054;-61
2022/07/29 05:01:57;;;;;;;6.25;2.53;;;;;;;19.51;53.30;100215.09;4991655;28;20122;-62
2022/07/29 05:04:25;;;;;;;6.80;2.10;;;;;;;19.58;53.75;100214.38;4992623;28;20058;-62
2022/07/29 05:06:52;;;;;;;7.00;2.53;;;;;;;19.65;52.95;100217.28;4990724;28;20069;-62
2022/07/29 05:09:19;;;;;;;6.97;1.80;;;;;;;19.70;52.28;100217.00;4993191;28;20057;-62
2022/07/29 05:11:46;;;;;;;4.78;1.83;;;;;;;19.79;51.61;100206.22;4989161;28;20054;-62
2022/07/29 05:14:14;;;;;;;4.53;1.90;;;;;;;19.81;50.97;100212.28;4991564;28;20407;-62
2022/07/29 05:16:43;;;;;;;3.95;1.60;;;;;;;19.87;50.46;100224.88;4985886;28;20054;-62
2022/07/29 05:19:10;;;;;;;3.10;1.77;;;;;;;19.96;49.51;100218.13;4988349;28;20050;-62
2022/07/29 05:21:37;;;;;;;3.53;1.75;;;;;;;20.02;49.04;100213.75;4988627;28;20073;-62
2022/07/29 05:24:05;;;;;;;5.45;1.77;;;;;;;19.87;49.12;100224.88;4988591;28;20165;-58
2022/07/29 05:26:32;;;;;;;8.50;2.28;;;;;;;19.85;49.64;100221.63;4987803;28;20046;-58
2022/07/29 05:29:00;;;;;;;3.13;1.60;;;;;;;19.83;49.44;100209.91;4988204;28;20058;-59
2022/07/29 05:31:27;;;;;;;5.25;1.60;;;;;;;19.94;48.71;100214.88;4990858;28;20054;-59
2022/07/29 05:33:56;;;;;;;2.97;1.30;;;;;;;20.01;48.85;100237.56;4989836;28;20053;-58
2022/07/29 05:36:27;;;;;;;3.72;1.63;;;;;;;20.11;48.58;100233.25;4988261;28;20744;-58
2022/07/29 05:38:54;;;;;;;3.35;1.80;;;;;;;20.28;48.40;100225.00;4988324;28;20487;-58
2022/07/29 05:41:22;;;;;;;3.13;1.60;;;;;;;20.41;47.35;100233.19;4992429;28;20419;-58
2022/07/29 05:43:49;;;;;;;5.30;1.77;;;;;;;20.36;48.15;100247.69;4992181;28;20050;-58
2022/07/29 05:46:16;;;;;;;4.00;1.58;;;;;;;20.25;47.70;100247.56;4989769;28;20050;-59
2022/07/29 05:48:44;;;;;;;3.72;1.75;;;;;;;20.45;46.97;100253.84;4990989;28;20066;-58
2022/07/29 05:51:12;;;;;;;5.70;1.48;;;;;;;20.61;47.08;100259.31;4991811;28;20054;-58
2022/07/29 05:53:40;;;;;;;4.13;1.50;;;;;;;20.66;46.99;100259.78;4992011;28;20065;-59
2022/07/29 05:56:08;;;;;;;3.38;1.70;;;;;;;20.80;46.83;100264.75;4988547;28;20160;-58
2022/07/29 05:58:36;;;;;;;2.70;1.50;;;;;;;20.83;46.78;100260.31;4992319;28;20062;-58
2022/07/29 06:01:03;;;;;;;5.40;1.92;;;;;;;20.76;46.35;100263.91;4992472;28;20054;-58
2022/07/29 06:03:31;;;;;;;4.05;1.80;;;;;;;20.60;46.81;100269.00;4991850;28;20054;-58
2022/07/29 06:05:58;;;;;;;3.65;1.58;;;;;;;20.75;46.48;100282.09;4989895;28;20173;-58
2022/07/29 06:08:27;;;;;;;3.63;1.90;;;;;;;20.76;46.29;100277.25;4973689;28;20058;-58
2022/07/29 06:10:54;;;;;;;5.78;1.67;;;;;;;20.83;45.95;100274.47;4973538;28;20420;-59
2022/07/29 06:13:22;;;;;;;4.88;1.63;;;;;;;20.92;46.07;100277.81;4989814;28;20500;-62
2022/07/29 06:15:49;;;;;;;3.20;1.33;;;;;;;20.99;45.99;100275.03;4981750;28;20475;-62
2022/07/29 06:18:16;;;;;;;5.00;2.20;;;;;;;20.90;46.16;100268.91;4989716;28;20431;-61
2022/07/29 06:20:43;;;;;;;5.32;1.80;;;;;;;20.93;46.04;100264.47;4989611;28;20826;-62
2022/07/29 06:23:11;;;;;;;5.50;1.70;;;;;;;20.92;45.88;100258.00;4991279;28;20050;-62
2022/07/29 06:25:40;;;;;;;4.45;1.70;;;;;;;20.95;46.21;100260.03;4990354;28;20077;-62
2022/07/29 06:28:08;;;;;;;5.00;1.60;;;;;;;21.01;45.75;100271.84;4993088;28;20050;-62
2022/07/29 06:30:35;;;;;;;3.30;1.52;;;;;;;21.00;45.62;100264.56;4992838;28;20062;-62
2022/07/29 06:33:02;;;;;;;3.78;1.70;;;;;;;21.13;45.78;100271.53;4992204;28;20054;-62
2022/07/29 06:35:30;;;;;;;6.22;2.10;;;;;;;21.15;45.36;100263.47;4991316;28;20491;-61
2022/07/29 06:37:57;;;;;;;6.82;2.10;;;;;;;20.98;45.79;100252.81;4993270;28;20051;-62
2022/07/29 06:43:11;;;;;;;5.95;1.55;;;;;;;21.01;45.49;100266.16;4989897;28;20062;-61
2022/07/29 06:45:40;;;;;;;5.25;1.58;;;;;;;21.24;45.47;100263.13;4990484;28;20058;-61
2022/07/29 06:48:08;;;;;;;4.88;1.75;;;;;;;21.34;45.02;100262.41;4992196;28;20499;-61
2022/07/29 06:50:35;;;;;;;6.07;1.88;;;;;;;21.48;45.08;100259.72;4991975;28;20058;-61
2022/07/29 06:53:02;;;;;;;7.72;1.70;;;;;;;21.69;44.48;100263.88;4992671;28;20050;-61
2022/07/29 06:55:29;;;;;;;5.28;1.75;;;;;;;21.85;44.01;100258.69;4971550;28;20069;-61
2022/07/29 06:57:57;;;;;;;3.50;1.60;;;;;;;22.01;43.35;100255.56;4977198;28;20066;-61
2022/07/29 07:00:25;;;;;;;6.53;2.05;;;;;;;22.16;42.81;100262.09;4973734;28;20058;-61
2022/07/29 07:02:53;;;;;;;4.03;1.70;;;;;;;22.20;43.04;100260.09;4980045;28;20760;-61
2022/07/29 07:05:20;;;;;;;4.63;1.85;;;;;;;22.38;43.25;100262.19;4974285;28;20054;-61
2022/07/29 07:07:50;;;;;;;7.53;2.13;;;;;;;22.62;42.70;100261.47;4983409;28;20057;-61
2022/07/29 07:10:17;;;;;;;4.93;1.65;;;;;;;22.73;41.72;100264.31;4980385;28;20057;-61
2022/07/29 07:12:44;;;;;;;8.45;2.13;;;;;;;22.85;41.64;100258.25;4977640;28;20054;-61
2022/07/29 07:15:12;;;;;;;6.05;1.73;;;;;;;22.94;41.22;100259.91;4974186;28;20050;-61
2022/07/29 07:17:40;;;;;;;4.50;1.77;;;;;;;23.20;41.07;100262.34;4971600;28;20073;-61
2022/07/29 07:20:08;;;;;;;6.85;1.73;;;;;;;23.50;40.76;100253.41;4985312;28;20073;-62
2022/07/29 07:22:36;;;;;;;4.00;1.58;;;;;;;23.71;39.84;100251.75;4978211;28;20054;-61
2022/07/29 07:25:03;;;;;;;2.85;1.52;;;;;;;24.00;39.78;100257.38;4990554;28;20053;-62
2022/07/29 07:27:31;;;;;;;6.57;1.90;;;;;;;24.19;39.16;100245.53;4974486;28;20065;-61
2022/07/29 07:29:58;;;;;;;6.10;2.17;;;;;;;24.44;38.56;100253.09;4972922;28;20486;-61
2022/07/29 07:32:25;;;;;;;4.28;2.05;;;;;;;24.44;38.52;100261.66;4978382;28;20497;-61
2022/07/29 07:34:54;;;;;;;3.85;1.73;;;;;;;24.30;38.92;100260.50;4985033;28;20057;-61
2022/07/29 07:37:21;;;;;;;4.43;1.75;;;;;;;24.65;38.28;100264.44;4980512;28;20530;-60
2022/07/29 07:39:49;;;;;;;4.05;1.90;;;;;;;24.96;37.99;100255.25;4984622;28;20050;-61
2022/07/29 07:42:16;;;;;;;4.53;1.60;;;;;;;25.43;36.78;100249.97;4970457;28;20054;-61
2022/07/29 07:44:45;;;;;;;5.53;1.77;;;;;;;25.86;35.95;100241.00;4975944;28;20042;-61
2022/07/29 07:47:13;;;;;;;4.88;1.70;;;;;;;26.13;36.25;100246.81;4974576;28;20403;-62
2022/07/29 07:49:40;;;;;;;4.15;1.50;;;;;;;26.41;35.39;100253.38;4984905;28;20055;-61
2022/07/29 07:52:08;;;;;;;5.80;1.70;;;;;;;26.42;34.66;100264.38;4979625;28;20054;-61
2022/07/29 07:54:36;;;;;;;4.20;2.00;;;;;;;26.46;34.86;100250.06;4976489;28;20069;-61
2022/07/29 07:57:03;;;;;;;6.22;1.70;;;;;;;26.33;35.30;100250.63;4974525;28;20055;-62
2022/07/29 07:59:30;;;;;;;5.05;1.50;;;;;;;26.50;34.68;100260.19;4978987;28;20057;-61
2022/07/29 08:01:58;;;;;;;5.03;1.83;;;;;;;26.66;34.51;100251.00;4979297;28;20422;-62
2022/07/29 08:04:25;;;;;;;3.80;1.52;;;;;;;26.96;34.30;100255.03;4979488;28;20475;-61
2022/07/29 08:06:54;;;;;;;4.00;1.67;;;;;;;27.28;34.15;100248.03;4985463;28;20081;-61
2022/07/29 08:09:22;;;;;;;3.90;1.80;;;;;;;27.77;33.38;100254.06;4978711;28;20406;-61
2022/07/29 08:11:50;;;;;;;6.30;1.75;;;;;;;28.33;32.21;100247.66;4978226;28;20050;-61
2022/07/29 08:14:17;;;;;;;5.00;1.70;;;;;;;28.39;32.15;100253.63;4980147;28;20392;-62
2022/07/29 08:16:44;;;;;;;6.72;1.80;;;;;;;28.52;31.28;100251.75;4974091;28;20469;-62
2022/07/29 08:19:11;;;;;;;4.22;1.83;;;;;;;28.46;31.37;100253.50;4974325;28;20047;-62
2022/07/29 08:21:39;;;;;;;3.70;1.80;;;;;;;28.76;31.60;100251.63;4977463;28;20046;-62
2022/07/29 08:26:54;;;;;;;5.03;2.20;;;;;;;29.86;30.00;100250.06;4983668;28;20065;-62
2022/07/29 08:29:21;;;;;;;3.45;1.90;;;;;;;30.01;29.69;100261.94;4976094;28;20054;-62
2022/07/29 08:31:48;;;;;;;6.53;2.30;;;;;;;30.25;29.74;100248.94;4990292;28;20454;-61
2022/07/29 08:34:16;;;;;;;3.83;2.00;;;;;;;30.55;29.02;100250.53;4992120;28;20063;-62
2022/07/29 08:36:43;;;;;;;5.10;2.15;;;;;;;30.88;28.29;100246.63;4987748;28;20066;-62
2022/07/29 08:39:10;;;;;;;7.43;1.80;;;;;;;30.88;28.61;100253.19;4992635;28;20435;-61
2022/07/29 08:41:38;;;;;;;5.95;1.85;;;;;;;30.89;28.63;100254.00;4996100;28;20537;-62
2022/07/29 08:44:07;;;;;;;5.05;2.00;;;;;;;30.71;27.87;100249.59;4985885;28;20046;-62
2022/07/29 08:46:34;;;;;;;;;;;;;;;30.34;28.69;100246.22;4988120;28;20050;-62
2022/07/29 08:49:03;;;;;;;5.43;1.77;;;;;;;30.43;29.24;100253.34;4999331;28;19921;-62
2022/07/29 08:51:31;;;;;;;;;;;;;;;30.38;28.96;100246.09;4981760;28;20054;-62
2022/07/29 08:53:59;;;;;;;5.38;1.83;;;;;;;30.57;28.44;100247.16;4985776;28;19933;-62
2022/07/29 08:56:27;;;;;;;3.67;1.60;;;;;;;30.66;28.42;100247.31;4985658;28;20438;-62
2022/07/29 08:58:55;;;;;;;7.80;2.25;;;;;;;30.61;27.59;100244.97;4996060;28;20073;-62
2022/07/29 09:01:26;;;;;;;6.72;2.10;;;;;;;30.66;27.63;100241.56;4992320;28;20060;-62
2022/07/29 09:03:56;;;;;;;4.47;1.70;;;;;;;30.80;28.13;100234.53;4990540;28;20069;-62
2022/07/29 09:06:27;;;;;;;4.72;2.00;;;;;;;30.84;27.23;100237.28;4996289;28;20068;-62
2022/07/29 09:08:59;;;;;;;5.30;1.90;;;;;;;30.61;28.12;100236.34;4994762;28;20522;-62
2022/07/29 09:11:26;;;;;;;4.00;1.73;;;;;;;30.67;27.98;100228.78;4986362;28;20065;-62
2022/07/29 09:13:53;;;;;;;4.50;1.92;;;;;;;31.13;26.99;100232.22;4986490;28;20504;-62
2022/07/29 09:16:21;;;;;;;7.30;2.35;;;;;;;31.55;26.94;100232.03;4979583;28;20057;-62
2022/07/29 09:18:49;;;;;;;4.55;2.03;;;;;;;31.61;26.81;100225.69;4992676;28;20057;-62
2022/07/29 09:24:07;;;;;;;5.22;2.20;;;;;;;31.84;26.61;100231.00;4984854;28;20061;-62
2022/07/29 09:26:36;;;;;;;7.13;2.22;;;;;;;31.86;26.98;100231.34;4991219;28;20511;-62
2022/07/29 09:29:09;;;;;;;5.15;1.83;;;;;;;31.85;26.73;100234.69;4990740;28;20057;-62
2022/07/29 09:31:39;;;;;;;5.40;1.98;;;;;;;31.81;26.94;100231.91;4982392;28;20061;-62
2022/07/29 09:34:09;;;;;;;5.55;2.13;;;;;;;32.02;26.69;100233.22;4987749;28;20458;-62
2022/07/29 09:36:43;;;;;;;4.97;1.85;;;;;;;32.11;26.72;100229.63;4991261;28;20435;-62
2022/07/29 09:39:11;;;;;;;4.00;2.00;;;;;;;33.41;25.59;100234.72;4987408;28;20061;-62
2022/07/29 09:41:48;;;;;;;4.95;2.15;;;;;;;34.70;24.28;100231.72;4989693;28;20046;-62
2022/07/29 09:44:17;;;;;;;6.10;1.98;;;;;;;35.61;22.90;100231.69;4977309;28;20063;-62
2022/07/29 09:46:58;;;;;;;3.63;1.98;;;;;;;35.69;22.76;100229.25;4987752;28;20050;-63
2022/07/29 09:49:27;;;;;;;4.80;2.05;;;;;;;35.56;22.71;100232.38;4985351;28;20054;-63
2022/07/29 09:52:01;;;;;;;3.33;1.90;;;;;;;35.00;22.40;100229.00;4987518;28;20062;-62
2022/07/29 09:54:34;;;;;;;6.28;2.10;;;;;;;34.43;22.78;100228.91;4978925;28;20063;-62
2022/07/29 09:57:01;;;;;;;5.13;2.05;;;;;;;34.06;23.33;100231.81;4987390;28;20054;-62
2022/07/29 09:59:28;;;;;;;5.97;1.98;;;;;;;33.67;24.64;100235.22;4995349;28;21772;-62
2022/07/29 10:01:56;;;;;;;3.80;1.80;;;;;;;33.08;24.50;100238.16;4995607;28;20415;-62
2022/07/29 10:04:24;;;;;;;6.30;2.00;;;;;;;33.02;25.13;100222.72;4989176;28;20054;-62
2022/07/29 10:06:59;;;;;;;5.95;2.33;;;;;;;32.63;25.01;100222.25;4993701;28;20383;-62
2022/07/29 10:09:27;;;;;;;4.22;1.98;;;;;;;32.14;25.82;100226.59;4988364;28;20383;-62
2022/07/29 10:12:10;;;;;;;4.45;2.17;;;;;;;32.03;26.29;100223.34;4985703;28;20058;-62
2022/07/29 10:14:38;;;;;;;4.63;2.05;;;;;;;31.85;26.85;100221.06;4985534;28;20059;-62
2022/07/29 10:17:07;;;;;;;5.73;2.40;;;;;;;31.70;26.39;100217.13;4983139;28;20050;-62
2022/07/29 10:19:35;;;;;;;5.30;2.40;;;;;;;31.11;26.76;100223.25;4992918;28;20473;-62
2022/07/29 10:22:06;;;;;;;3.40;1.92;;;;;;;30.89;28.08;100225.22;4992629;28;20050;-62
2022/07/29 10:24:35;;;;;;;6.25;2.42;;;;;;;30.78;29.25;100228.44;4989912;28;20050;-62
2022/07/29 10:27:03;;;;;;;9.30;3.20;;;;;;;30.60;29.89;100226.13;4992921;28;20415;-62
2022/07/29 10:29:31;;;;;;;;;;;;;;;30.36;30.87;100214.16;4993208;28;20062;-63
2022/07/29 10:32:14;;;;;;;7.03;2.67;;;;;;;30.07;31.54;100217.03;4991930;28;19922;-62
2022/07/29 10:34:57;;;;;;;6.68;2.70;;;;;;;29.69;32.22;100232.03;4992642;28;20166;-62
2022/07/29 10:37:47;;;;;;;7.10;3.20;;;;;;;29.24;32.79;100221.38;4991929;28;20054;-62
2022/07/29 10:43:18;;;;;;;8.27;3.08;;;;;;;28.57;33.62;100228.28;4995717;28;20065;-62
2022/07/29 10:45:47;;;;;;;6.78;2.50;;;;;;;28.18;34.23;100227.09;4993035;28;20053;-62
2022/07/29 10:48:15;;;;;;;7.15;2.47;;;;;;;28.03;34.54;100228.63;4992367;28;20054;-62
2022/07/29 10:50:59;;;;;;;7.75;2.70;;;;;;;27.81;35.07;100231.91;4991152;28;20046;-62
2022/07/29 10:53:50;;;;;;;5.95;2.65;;;;;;;27.65;35.64;100235.47;4993536;28;20627;-62
2022/07/29 10:56:27;;;;;;;6.75;2.55;;;;;;;27.45;35.60;100231.78;4994698;28;20084;-62
2022/07/29 10:59:24;;;;;;;5.18;2.78;;;;;;;27.24;36.25;100236.66;4990876;28;20066;-62
2022/07/29 11:01:52;;;;;;;5.55;3.03;;;;;;;27.20;36.04;100237.91;4987887;28;20081;-62
2022/07/29 11:05:04;;;;;;;6.97;3.00;;;;;;;27.12;36.28;100246.59;4976723;28;20196;-62
2022/07/29 11:07:31;;;;;;;8.18;3.10;;;;;;;27.19;36.17;100239.16;4992053;28;20050;-62
2022/07/29 11:10:22;;;;;;;5.85;3.13;;;;;;;27.48;35.67;100246.00;4974109;28;20055;-62
2022/07/29 11:12:50;;;;;;;5.10;3.30;;;;;;;27.64;36.00;100244.50;4991043;28;20055;-61
2022/07/29 11:15:20;;;;;;;4.15;3.10;;;;;;;27.84;35.83;100241.66;4990088;28;20054;-61
2022/07/29 11:18:10;;;;;;;8.38;4.00;;;;;;;28.13;34.98;100241.91;4982267;28;20507;-61
2022/07/29 11:20:40;;;;;;;7.90;3.50;;;;;;;28.40;34.73;100240.94;4994409;28;20046;-61
2022/07/29 11:23:23;;;;;;;10.45;3.83;;;;;;;28.66;33.95;100230.53;4994490;28;20050;-62
2022/07/29 11:26:16;;;;;;;6.00;3.45;;;;;;;29.17;33.31;100233.03;4980360;28;20051;-61
2022/07/29 11:28:52;;;;;;;8.23;2.90;;;;;;;29.80;33.19;100224.00;4992909;28;20077;-62
2022/07/29 11:31:33;;;;;;;5.40;3.08;;;;;;;30.62;31.83;100226.50;4980553;28;20058;-61
2022/07/29 11:34:19;;;;;;;5.15;3.40;;;;;;;31.20;30.41;100233.25;4955554;29;20055;-61
2022/07/29 11:37:24;;;;;;;5.05;3.67;;;;;;;31.57;29.87;100234.44;4959469;28;20487;-62
2022/07/29 11:40:16;;;;;;;5.15;3.22;;;;;;;32.80;28.79;100227.75;4981791;28;20066;-62
2022/07/29 11:42:46;;;;;;;9.13;3.13;;;;;;;33.41;27.30;100226.03;4974363;28;20046;-62
2022/07/29 11:45:17;;;;;;;6.25;2.97;;;;;;;33.65;26.87;100225.44;4988696;28;20050;-62
2022/07/29 11:47:50;;;;;;;6.80;2.90;;;;;;;34.21;26.58;100211.75;4972083;28;20063;-62
2022/07/29 11:50:27;;;;;;;5.63;3.08;;;;;;;34.25;26.27;100224.78;4977726;28;20419;-62
2022/07/29 11:52:54;;;;;;;6.68;2.92;;;;;;;34.56;25.91;100229.50;4987139;28;20062;-62